LAN474 SAEZ-SCEL
Flight info
| Callsign | LAN474 |
|---|---|
| Flight time | 1h 52m |
| Altitude | 34000 |
| Route | URINO1A URINO UL405 TOSOR UT687 UMKAL UMKAL7C |
| Aircraft | A321/M-SDE3FGHIRWY/LB1 |
Departure
| Time | 2026-05-01 08:38 |
|---|---|
| Airport | Ezeiza International Airport - Ministro Pistarini (SAEZ) |
Arrival
| Time | 2026-05-01 10:30 |
|---|---|
| Airport | Comodoro Arturo Merino Benítez International Airport (SCEL) |
| Time | Latitude | Longitude | Altitude | Speed | Heading |
|---|---|---|---|---|---|
| 2026-05-01 07:55 | -34.81253 | -58.53748 | 68 ft | 0 kts | 233° |
| 2026-05-01 08:26 | -34.81240 | -58.53728 | 66 ft | 4 kts | 234° |
| 2026-05-01 08:26 | -34.81224 | -58.53701 | 64 ft | 4 kts | 236° |
| 2026-05-01 08:26 | -34.81210 | -58.53674 | 64 ft | 4 kts | 238° |
| 2026-05-01 08:27 | -34.81196 | -58.53646 | 59 ft | 4 kts | 243° |
| 2026-05-01 08:27 | -34.81186 | -58.53619 | 59 ft | 3 kts | 245° |
| 2026-05-01 08:27 | -34.81180 | -58.53604 | 60 ft | 2 kts | 244° |
| 2026-05-01 08:27 | -34.81175 | -58.53592 | 60 ft | 2 kts | 242° |
| 2026-05-01 08:28 | -34.81173 | -58.53586 | 61 ft | 0 kts | 242° |
| 2026-05-01 08:30 | -34.81188 | -58.53590 | 58 ft | 8 kts | 191° |
| 2026-05-01 08:30 | -34.81287 | -58.53590 | 64 ft | 16 kts | 175° |
| 2026-05-01 08:30 | -34.81391 | -58.53600 | 66 ft | 14 kts | 193° |
| 2026-05-01 08:31 | -34.81481 | -58.53636 | 68 ft | 13 kts | 202° |
| 2026-05-01 08:31 | -34.81553 | -58.53688 | 68 ft | 11 kts | 219° |
| 2026-05-01 08:31 | -34.81609 | -58.53750 | 65 ft | 10 kts | 222° |
| 2026-05-01 08:31 | -34.81673 | -58.53820 | 65 ft | 19 kts | 223° |
| 2026-05-01 08:32 | -34.81757 | -58.53965 | 63 ft | 21 kts | 239° |
| 2026-05-01 08:32 | -34.81791 | -58.54123 | 67 ft | 19 kts | 276° |
| 2026-05-01 08:32 | -34.81772 | -58.54277 | 70 ft | 18 kts | 277° |
| 2026-05-01 08:32 | -34.81757 | -58.54423 | 70 ft | 17 kts | 277° |
| 2026-05-01 08:33 | -34.81759 | -58.54589 | 69 ft | 22 kts | 258° |
| 2026-05-01 08:33 | -34.81776 | -58.54772 | 67 ft | 21 kts | 277° |
| 2026-05-01 08:33 | -34.81757 | -58.54886 | 69 ft | 20 kts | 283° |
| 2026-05-01 08:33 | -34.81727 | -58.55051 | 71 ft | 19 kts | 281° |
| 2026-05-01 08:34 | -34.81702 | -58.55199 | 67 ft | 16 kts | 280° |
| 2026-05-01 08:34 | -34.81717 | -58.55314 | 65 ft | 11 kts | 231° |
| 2026-05-01 08:34 | -34.81736 | -58.55334 | 64 ft | 0 kts | 214° |
| 2026-05-01 08:35 | -34.81747 | -58.55341 | 67 ft | 6 kts | 207° |
| 2026-05-01 08:36 | -34.81787 | -58.55348 | 67 ft | 7 kts | 171° |
| 2026-05-01 08:36 | -34.81839 | -58.55318 | 63 ft | 9 kts | 150° |
| 2026-05-01 08:36 | -34.81889 | -58.55269 | 64 ft | 9 kts | 135° |
| 2026-05-01 08:36 | -34.81923 | -58.55212 | 60 ft | 8 kts | 115° |
| 2026-05-01 08:37 | -34.81938 | -58.55150 | 60 ft | 11 kts | 104° |
| 2026-05-01 08:37 | -34.82003 | -58.54785 | 69 ft | 79 kts | 101° |
| 2026-05-01 08:37 | -34.82160 | -58.53884 | 69 ft | 136 kts | 102° |
| 2026-05-01 08:37 | -34.82397 | -58.52583 | 86 ft | 177 kts | 102° |
| 2026-05-01 08:38 | -34.82656 | -58.51191 | 873 ft | 156 kts | 98° |
| 2026-05-01 08:38 | -34.82989 | -58.49893 | 1383 ft | 169 kts | 109° |
| 2026-05-01 08:38 | -34.83713 | -58.48691 | 1768 ft | 186 kts | 133° |
| 2026-05-01 08:38 | -34.84797 | -58.47744 | 2154 ft | 197 kts | 145° |
| 2026-05-01 08:39 | -34.85950 | -58.46814 | 2610 ft | 198 kts | 137° |
| 2026-05-01 08:39 | -34.86901 | -58.45610 | 3015 ft | 200 kts | 121° |
| 2026-05-01 08:39 | -34.87607 | -58.44110 | 3277 ft | 208 kts | 109° |
| 2026-05-01 08:39 | -34.88208 | -58.42475 | 3608 ft | 215 kts | 110° |
| 2026-05-01 08:40 | -34.89838 | -58.39229 | 4158 ft | 240 kts | 137° |
| 2026-05-01 08:40 | -34.91314 | -58.38174 | 4394 ft | 253 kts | 163° |
| 2026-05-01 08:40 | -34.93089 | -58.37895 | 4664 ft | 265 kts | 188° |
| 2026-05-01 08:41 | -34.94918 | -58.38479 | 4855 ft | 281 kts | 212° |
| 2026-05-01 08:41 | -34.96304 | -58.40056 | 5443 ft | 271 kts | 248° |
| 2026-05-01 08:41 | -34.96914 | -58.42167 | 6143 ft | 268 kts | 261° |
| 2026-05-01 08:41 | -34.97409 | -58.44375 | 6851 ft | 272 kts | 258° |
| 2026-05-01 08:42 | -34.97995 | -58.46587 | 7540 ft | 276 kts | 257° |
| 2026-05-01 08:42 | -34.98566 | -58.48837 | 8233 ft | 278 kts | 261° |
| 2026-05-01 08:42 | -34.98963 | -58.51147 | 8920 ft | 278 kts | 268° |
| 2026-05-01 08:42 | -34.99134 | -58.53499 | 9604 ft | 280 kts | 272° |
| 2026-05-01 08:43 | -34.99256 | -58.55878 | 10239 ft | 283 kts | 272° |
| 2026-05-01 08:43 | -34.99372 | -58.58319 | 10595 ft | 298 kts | 272° |
| 2026-05-01 08:43 | -34.99488 | -58.60930 | 10726 ft | 319 kts | 272° |
| 2026-05-01 08:43 | -34.99615 | -58.63717 | 10983 ft | 335 kts | 271° |
| 2026-05-01 08:44 | -34.99755 | -58.66572 | 11531 ft | 340 kts | 270° |
| 2026-05-01 08:44 | -34.99900 | -58.69463 | 12131 ft | 344 kts | 270° |
| 2026-05-01 08:44 | -35.00046 | -58.72390 | 12735 ft | 347 kts | 270° |
| 2026-05-01 08:44 | -35.00193 | -58.75321 | 13330 ft | 351 kts | 270° |
| 2026-05-01 08:45 | -35.00342 | -58.78311 | 13898 ft | 354 kts | 270° |
| 2026-05-01 08:45 | -35.00489 | -58.81342 | 14455 ft | 356 kts | 270° |
| 2026-05-01 08:45 | -35.00632 | -58.84327 | 15035 ft | 357 kts | 270° |
| 2026-05-01 08:45 | -35.00747 | -58.87355 | 15625 ft | 358 kts | 271° |
| 2026-05-01 08:46 | -35.00834 | -58.90393 | 16210 ft | 359 kts | 272° |
| 2026-05-01 08:46 | -35.00906 | -58.93435 | 16801 ft | 359 kts | 272° |
| 2026-05-01 08:46 | -35.00975 | -58.96489 | 17381 ft | 361 kts | 272° |
| 2026-05-01 08:46 | -35.01047 | -58.99553 | 17958 ft | 362 kts | 272° |
| 2026-05-01 08:47 | -35.01124 | -59.02624 | 18482 ft | 363 kts | 272° |
| 2026-05-01 08:47 | -35.01207 | -59.05711 | 18941 ft | 365 kts | 272° |
| 2026-05-01 08:47 | -35.01292 | -59.08823 | 19388 ft | 367 kts | 272° |
| 2026-05-01 08:47 | -35.01377 | -59.11947 | 19832 ft | 369 kts | 272° |
| 2026-05-01 08:48 | -35.01459 | -59.15084 | 20269 ft | 371 kts | 272° |
| 2026-05-01 08:48 | -35.01538 | -59.18240 | 20713 ft | 373 kts | 272° |
| 2026-05-01 08:48 | -35.01618 | -59.21418 | 21152 ft | 375 kts | 272° |
| 2026-05-01 08:48 | -35.01587 | -59.24596 | 21576 ft | 374 kts | 279° |
| 2026-05-01 08:49 | -35.01004 | -59.27679 | 21992 ft | 373 kts | 292° |
| 2026-05-01 08:49 | -34.99850 | -59.30501 | 22409 ft | 373 kts | 304° |
| 2026-05-01 08:49 | -34.98184 | -59.32931 | 22820 ft | 376 kts | 315° |
| 2026-05-01 08:49 | -34.96244 | -59.35088 | 23219 ft | 378 kts | 316° |
| 2026-05-01 08:50 | -34.94288 | -59.37248 | 23601 ft | 381 kts | 316° |
| 2026-05-01 08:50 | -34.92319 | -59.39423 | 23937 ft | 383 kts | 316° |
| 2026-05-01 08:50 | -34.90345 | -59.41611 | 24286 ft | 384 kts | 316° |
| 2026-05-01 08:50 | -34.88367 | -59.43804 | 24636 ft | 386 kts | 316° |
| 2026-05-01 08:51 | -34.86379 | -59.46010 | 24981 ft | 387 kts | 316° |
| 2026-05-01 08:51 | -34.84376 | -59.48226 | 25323 ft | 389 kts | 316° |
| 2026-05-01 08:51 | -34.82365 | -59.50445 | 25653 ft | 390 kts | 316° |
| 2026-05-01 08:51 | -34.80348 | -59.52665 | 25984 ft | 392 kts | 316° |
| 2026-05-01 08:52 | -34.78321 | -59.54893 | 26321 ft | 393 kts | 316° |
| 2026-05-01 08:52 | -34.76290 | -59.57128 | 26646 ft | 395 kts | 316° |
| 2026-05-01 08:52 | -34.74270 | -59.59356 | 26955 ft | 396 kts | 316° |
| 2026-05-01 08:52 | -34.72310 | -59.61720 | 27281 ft | 397 kts | 309° |
| 2026-05-01 08:53 | -34.70759 | -59.64485 | 27576 ft | 398 kts | 298° |
| 2026-05-01 08:53 | -34.69697 | -59.67605 | 27873 ft | 401 kts | 288° |
| 2026-05-01 08:53 | -34.69155 | -59.70936 | 28163 ft | 405 kts | 280° |
| 2026-05-01 08:53 | -34.68765 | -59.74330 | 28447 ft | 406 kts | 281° |
| 2026-05-01 08:54 | -34.68368 | -59.77740 | 28732 ft | 408 kts | 281° |
| 2026-05-01 08:54 | -34.67963 | -59.81159 | 29006 ft | 409 kts | 281° |
| 2026-05-01 08:54 | -34.67554 | -59.84583 | 29259 ft | 411 kts | 281° |
| 2026-05-01 08:54 | -34.67140 | -59.88026 | 29533 ft | 412 kts | 281° |
| 2026-05-01 08:55 | -34.66726 | -59.91480 | 29807 ft | 414 kts | 281° |
| 2026-05-01 08:55 | -34.66312 | -59.94942 | 30047 ft | 416 kts | 281° |
| 2026-05-01 08:55 | -34.65899 | -59.98416 | 30346 ft | 415 kts | 281° |
| 2026-05-01 08:55 | -34.65489 | -60.01878 | 30700 ft | 413 kts | 281° |
| 2026-05-01 08:56 | -34.65076 | -60.05325 | 31055 ft | 411 kts | 281° |
| 2026-05-01 08:56 | -34.64659 | -60.08753 | 31414 ft | 409 kts | 281° |
| 2026-05-01 08:56 | -34.64243 | -60.12162 | 31775 ft | 407 kts | 281° |
| 2026-05-01 08:56 | -34.63830 | -60.15559 | 32138 ft | 406 kts | 281° |
| 2026-05-01 08:57 | -34.63417 | -60.18942 | 32507 ft | 404 kts | 281° |
| 2026-05-01 08:57 | -34.63002 | -60.22311 | 32853 ft | 402 kts | 281° |
| 2026-05-01 08:57 | -34.62587 | -60.25663 | 33200 ft | 401 kts | 281° |
| 2026-05-01 08:57 | -34.62176 | -60.29001 | 33551 ft | 399 kts | 281° |
| 2026-05-01 08:58 | -34.61771 | -60.32330 | 33847 ft | 398 kts | 281° |
| 2026-05-01 08:58 | -34.61372 | -60.35603 | 33901 ft | 393 kts | 281° |
| 2026-05-01 08:58 | -34.60577 | -60.42104 | 33901 ft | 388 kts | 281° |
| 2026-05-01 08:59 | -34.59773 | -60.48579 | 33900 ft | 388 kts | 281° |
| 2026-05-01 08:59 | -34.58961 | -60.55057 | 33898 ft | 388 kts | 281° |
| 2026-05-01 09:00 | -34.58146 | -60.61544 | 33901 ft | 389 kts | 281° |
| 2026-05-01 09:00 | -34.57331 | -60.68032 | 33902 ft | 388 kts | 281° |
| 2026-05-01 09:01 | -34.56521 | -60.74504 | 33900 ft | 388 kts | 281° |
| 2026-05-01 09:01 | -34.55698 | -60.80977 | 33908 ft | 389 kts | 281° |
| 2026-05-01 09:02 | -34.54866 | -60.87463 | 33901 ft | 389 kts | 281° |
| 2026-05-01 09:02 | -34.54028 | -60.93947 | 33896 ft | 389 kts | 281° |
| 2026-05-01 09:03 | -34.53085 | -61.00400 | 33888 ft | 388 kts | 283° |
| 2026-05-01 09:03 | -34.52062 | -61.06835 | 33881 ft | 389 kts | 283° |
| 2026-05-01 09:04 | -34.51033 | -61.13271 | 33877 ft | 389 kts | 283° |
| 2026-05-01 09:04 | -34.50024 | -61.19729 | 33878 ft | 390 kts | 282° |
| 2026-05-01 09:05 | -34.49026 | -61.26195 | 33880 ft | 390 kts | 282° |
| 2026-05-01 09:05 | -34.48028 | -61.32652 | 33882 ft | 390 kts | 282° |
| 2026-05-01 09:06 | -34.47022 | -61.39081 | 33896 ft | 390 kts | 282° |
| 2026-05-01 09:06 | -34.46000 | -61.45535 | 33890 ft | 390 kts | 283° |
| 2026-05-01 09:07 | -34.44971 | -61.51995 | 33887 ft | 390 kts | 283° |
| 2026-05-01 09:07 | -34.43939 | -61.58443 | 33862 ft | 390 kts | 283° |
| 2026-05-01 09:08 | -34.42904 | -61.64901 | 33862 ft | 391 kts | 283° |
| 2026-05-01 09:08 | -34.41875 | -61.71363 | 33863 ft | 391 kts | 283° |
| 2026-05-01 09:09 | -34.40834 | -61.77824 | 33871 ft | 391 kts | 283° |
| 2026-05-01 09:09 | -34.39782 | -61.84293 | 33873 ft | 391 kts | 283° |
| 2026-05-01 09:10 | -34.38727 | -61.90750 | 33872 ft | 391 kts | 283° |
| 2026-05-01 09:10 | -34.37672 | -61.97218 | 33884 ft | 391 kts | 283° |
| 2026-05-01 09:11 | -34.36615 | -62.03676 | 33882 ft | 391 kts | 283° |
| 2026-05-01 09:11 | -34.35552 | -62.10133 | 33878 ft | 391 kts | 283° |
| 2026-05-01 09:12 | -34.34483 | -62.16593 | 33857 ft | 391 kts | 283° |
| 2026-05-01 09:12 | -34.33419 | -62.23045 | 33873 ft | 391 kts | 283° |
| 2026-05-01 09:13 | -34.32529 | -62.28415 | 33870 ft | 391 kts | 283° |
| 2026-05-01 09:13 | -34.31460 | -62.34873 | 33869 ft | 392 kts | 283° |
| 2026-05-01 09:14 | -34.30380 | -62.41331 | 33866 ft | 392 kts | 283° |
| 2026-05-01 09:14 | -34.29298 | -62.47795 | 33866 ft | 392 kts | 283° |
| 2026-05-01 09:15 | -34.28211 | -62.54256 | 33882 ft | 392 kts | 283° |
| 2026-05-01 09:15 | -34.27124 | -62.60716 | 33879 ft | 392 kts | 283° |
| 2026-05-01 09:16 | -34.26034 | -62.67165 | 33879 ft | 391 kts | 283° |
| 2026-05-01 09:17 | -34.24390 | -62.76841 | 33848 ft | 392 kts | 283° |
| 2026-05-01 09:17 | -34.22735 | -62.86513 | 33873 ft | 392 kts | 283° |
| 2026-05-01 09:18 | -34.21067 | -62.96180 | 33869 ft | 392 kts | 283° |
| 2026-05-01 09:19 | -34.19401 | -63.05834 | 33871 ft | 391 kts | 283° |
| 2026-05-01 09:20 | -34.17740 | -63.15438 | 33876 ft | 391 kts | 283° |
| 2026-05-01 09:21 | -34.15503 | -63.28292 | 33858 ft | 391 kts | 283° |
| 2026-05-01 09:21 | -34.13798 | -63.37920 | 33856 ft | 391 kts | 283° |
| 2026-05-01 09:22 | -34.11289 | -63.50685 | 33870 ft | 391 kts | 284° |
| 2026-05-01 09:23 | -34.09366 | -63.60260 | 33869 ft | 391 kts | 284° |
| 2026-05-01 09:24 | -34.07476 | -63.69823 | 33860 ft | 391 kts | 284° |
| 2026-05-01 09:25 | -34.04942 | -63.82559 | 33845 ft | 391 kts | 284° |
| 2026-05-01 09:26 | -34.03025 | -63.92113 | 33850 ft | 391 kts | 284° |
| 2026-05-01 09:26 | -34.01106 | -64.01676 | 33851 ft | 391 kts | 284° |
| 2026-05-01 09:27 | -33.99196 | -64.11210 | 33857 ft | 391 kts | 284° |
| 2026-05-01 09:28 | -33.97914 | -64.17582 | 33853 ft | 392 kts | 284° |
| 2026-05-01 09:28 | -33.96620 | -64.23968 | 33852 ft | 392 kts | 284° |
| 2026-05-01 09:29 | -33.94678 | -64.33529 | 33855 ft | 392 kts | 284° |
| 2026-05-01 09:30 | -33.92731 | -64.43093 | 33841 ft | 392 kts | 284° |
| 2026-05-01 09:30 | -33.90780 | -64.52670 | 33844 ft | 393 kts | 283° |
| 2026-05-01 09:31 | -33.89700 | -64.59128 | 33847 ft | 394 kts | 281° |
| 2026-05-01 09:32 | -33.88203 | -64.68850 | 33850 ft | 394 kts | 282° |
| 2026-05-01 09:32 | -33.86604 | -64.78539 | 33851 ft | 394 kts | 282° |
| 2026-05-01 09:33 | -33.85524 | -64.84997 | 33852 ft | 394 kts | 282° |
| 2026-05-01 09:34 | -33.83917 | -64.94683 | 33852 ft | 394 kts | 282° |
| 2026-05-01 09:34 | -33.82301 | -65.04366 | 33864 ft | 393 kts | 282° |
| 2026-05-01 09:35 | -33.80656 | -65.14041 | 33859 ft | 393 kts | 282° |
| 2026-05-01 09:36 | -33.79575 | -65.20474 | 33857 ft | 393 kts | 282° |
| 2026-05-01 09:36 | -33.78499 | -65.26863 | 33858 ft | 392 kts | 282° |
| 2026-05-01 09:37 | -33.77405 | -65.33291 | 33862 ft | 392 kts | 282° |
| 2026-05-01 09:37 | -33.75758 | -65.42924 | 33864 ft | 392 kts | 282° |
| 2026-05-01 09:38 | -33.74117 | -65.52547 | 33866 ft | 391 kts | 282° |
| 2026-05-01 09:39 | -33.72466 | -65.62120 | 33861 ft | 391 kts | 282° |
| 2026-05-01 09:39 | -33.71352 | -65.68558 | 33867 ft | 391 kts | 282° |
| 2026-05-01 09:40 | -33.69683 | -65.78111 | 33877 ft | 391 kts | 282° |
| 2026-05-01 09:41 | -33.68563 | -65.84501 | 33874 ft | 391 kts | 282° |
| 2026-05-01 09:41 | -33.66891 | -65.94079 | 33889 ft | 391 kts | 282° |
| 2026-05-01 09:42 | -33.65771 | -66.00460 | 33890 ft | 391 kts | 282° |
| 2026-05-01 09:43 | -33.63508 | -66.13210 | 33877 ft | 390 kts | 282° |
| 2026-05-01 09:43 | -33.62378 | -66.19587 | 33874 ft | 390 kts | 282° |
| 2026-05-01 09:44 | -33.60672 | -66.29146 | 33855 ft | 391 kts | 282° |
| 2026-05-01 09:45 | -33.59532 | -66.35528 | 33854 ft | 391 kts | 282° |
| 2026-05-01 09:45 | -33.57811 | -66.45097 | 33849 ft | 391 kts | 282° |
| 2026-05-01 09:46 | -33.56664 | -66.51474 | 33842 ft | 391 kts | 282° |
| 2026-05-01 09:46 | -33.55521 | -66.57846 | 33847 ft | 391 kts | 282° |
| 2026-05-01 09:47 | -33.54362 | -66.64229 | 33834 ft | 392 kts | 282° |
| 2026-05-01 09:47 | -33.53196 | -66.70611 | 33833 ft | 392 kts | 282° |
| 2026-05-01 09:48 | -33.52031 | -66.76999 | 33832 ft | 392 kts | 282° |
| 2026-05-01 09:48 | -33.50859 | -66.83390 | 33832 ft | 393 kts | 282° |
| 2026-05-01 09:49 | -33.49690 | -66.89739 | 33818 ft | 393 kts | 282° |
| 2026-05-01 09:49 | -33.48509 | -66.96131 | 33820 ft | 394 kts | 282° |
| 2026-05-01 09:50 | -33.47319 | -67.02539 | 33816 ft | 395 kts | 282° |
| 2026-05-01 09:50 | -33.46126 | -67.08963 | 33825 ft | 395 kts | 282° |
| 2026-05-01 09:51 | -33.44937 | -67.15387 | 33833 ft | 395 kts | 282° |
| 2026-05-01 09:51 | -33.43741 | -67.21820 | 33835 ft | 396 kts | 282° |
| 2026-05-01 09:52 | -33.42545 | -67.28259 | 33834 ft | 397 kts | 282° |
| 2026-05-01 09:52 | -33.41331 | -67.34699 | 33835 ft | 397 kts | 282° |
| 2026-05-01 09:53 | -33.40109 | -67.41156 | 33834 ft | 398 kts | 282° |
| 2026-05-01 09:53 | -33.38884 | -67.47614 | 33837 ft | 398 kts | 282° |
| 2026-05-01 09:54 | -33.37863 | -67.52986 | 33822 ft | 398 kts | 282° |
| 2026-05-01 09:54 | -33.36642 | -67.59446 | 33832 ft | 399 kts | 282° |
| 2026-05-01 09:55 | -33.35410 | -67.65920 | 33838 ft | 399 kts | 282° |
| 2026-05-01 09:55 | -33.34170 | -67.72391 | 33840 ft | 399 kts | 282° |
| 2026-05-01 09:56 | -33.32927 | -67.78870 | 33840 ft | 400 kts | 282° |
| 2026-05-01 09:56 | -33.31680 | -67.85353 | 33845 ft | 400 kts | 282° |
| 2026-05-01 09:57 | -33.30435 | -67.91832 | 33847 ft | 400 kts | 282° |
| 2026-05-01 09:57 | -33.29191 | -67.98319 | 33851 ft | 400 kts | 282° |
| 2026-05-01 09:58 | -33.27931 | -68.04792 | 33852 ft | 400 kts | 282° |
| 2026-05-01 09:58 | -33.26672 | -68.11263 | 33853 ft | 400 kts | 282° |
| 2026-05-01 09:59 | -33.25408 | -68.17744 | 33827 ft | 400 kts | 282° |
| 2026-05-01 09:59 | -33.24142 | -68.24218 | 33833 ft | 401 kts | 282° |
| 2026-05-01 10:00 | -33.22877 | -68.30674 | 33840 ft | 402 kts | 282° |
| 2026-05-01 10:00 | -33.21596 | -68.37194 | 33845 ft | 403 kts | 282° |
| 2026-05-01 10:01 | -33.20320 | -68.43700 | 33852 ft | 403 kts | 282° |
| 2026-05-01 10:01 | -33.19032 | -68.50215 | 33849 ft | 403 kts | 282° |
| 2026-05-01 10:02 | -33.17737 | -68.56732 | 33842 ft | 404 kts | 282° |
| 2026-05-01 10:02 | -33.16431 | -68.63256 | 33844 ft | 404 kts | 282° |
| 2026-05-01 10:03 | -33.15125 | -68.69788 | 33854 ft | 405 kts | 282° |
| 2026-05-01 10:03 | -33.13817 | -68.76329 | 33842 ft | 405 kts | 282° |
| 2026-05-01 10:04 | -33.12507 | -68.82870 | 33844 ft | 405 kts | 282° |
| 2026-05-01 10:04 | -33.11187 | -68.89416 | 33830 ft | 406 kts | 282° |
| 2026-05-01 10:05 | -33.09869 | -68.95970 | 33805 ft | 408 kts | 282° |
| 2026-05-01 10:05 | -33.09203 | -68.99260 | 33537 ft | 409 kts | 282° |
| 2026-05-01 10:05 | -33.08531 | -69.02571 | 33265 ft | 410 kts | 282° |
| 2026-05-01 10:06 | -33.07859 | -69.05872 | 33000 ft | 410 kts | 282° |
| 2026-05-01 10:06 | -33.07185 | -69.09178 | 32740 ft | 411 kts | 283° |
| 2026-05-01 10:06 | -33.06506 | -69.12491 | 32480 ft | 411 kts | 282° |
| 2026-05-01 10:06 | -33.05829 | -69.15797 | 32236 ft | 410 kts | 282° |
| 2026-05-01 10:07 | -33.05154 | -69.19090 | 31986 ft | 408 kts | 282° |
| 2026-05-01 10:07 | -33.04481 | -69.22376 | 31724 ft | 408 kts | 282° |
| 2026-05-01 10:07 | -33.03810 | -69.25664 | 31478 ft | 408 kts | 282° |
| 2026-05-01 10:07 | -33.03140 | -69.28941 | 31273 ft | 406 kts | 282° |
| 2026-05-01 10:08 | -33.01805 | -69.35449 | 30786 ft | 402 kts | 282° |
| 2026-05-01 10:08 | -33.01142 | -69.38676 | 30543 ft | 401 kts | 282° |
| 2026-05-01 10:08 | -33.00476 | -69.41899 | 30369 ft | 399 kts | 282° |
| 2026-05-01 10:09 | -32.99816 | -69.45098 | 30133 ft | 397 kts | 282° |
| 2026-05-01 10:09 | -32.99156 | -69.48289 | 29852 ft | 396 kts | 282° |
| 2026-05-01 10:09 | -32.98497 | -69.51472 | 29572 ft | 394 kts | 282° |
| 2026-05-01 10:09 | -32.97840 | -69.54628 | 29395 ft | 389 kts | 282° |
| 2026-05-01 10:10 | -32.97195 | -69.57718 | 29122 ft | 381 kts | 281° |
| 2026-05-01 10:10 | -32.96560 | -69.60766 | 28847 ft | 378 kts | 281° |
| 2026-05-01 10:10 | -32.95304 | -69.66807 | 28374 ft | 373 kts | 281° |
| 2026-05-01 10:11 | -32.94681 | -69.69799 | 28117 ft | 372 kts | 282° |
| 2026-05-01 10:11 | -32.94058 | -69.72779 | 27854 ft | 370 kts | 282° |
| 2026-05-01 10:11 | -32.93437 | -69.75739 | 27564 ft | 365 kts | 282° |
| 2026-05-01 10:11 | -32.92825 | -69.78654 | 27122 ft | 360 kts | 282° |
| 2026-05-01 10:12 | -32.92221 | -69.81523 | 26764 ft | 355 kts | 281° |
| 2026-05-01 10:12 | -32.91622 | -69.84352 | 26355 ft | 350 kts | 282° |
| 2026-05-01 10:12 | -32.90462 | -69.89872 | 25589 ft | 342 kts | 282° |
| 2026-05-01 10:13 | -32.89880 | -69.92636 | 25188 ft | 338 kts | 282° |
| 2026-05-01 10:13 | -32.89312 | -69.95320 | 24825 ft | 332 kts | 282° |
| 2026-05-01 10:13 | -32.88750 | -69.97968 | 24458 ft | 327 kts | 282° |
| 2026-05-01 10:14 | -32.88030 | -70.03209 | 23654 ft | 330 kts | 275° |
| 2026-05-01 10:14 | -32.87786 | -70.05948 | 23312 ft | 336 kts | 275° |
| 2026-05-01 10:14 | -32.87535 | -70.08707 | 22951 ft | 335 kts | 275° |
| 2026-05-01 10:14 | -32.87284 | -70.11470 | 22600 ft | 334 kts | 275° |
| 2026-05-01 10:15 | -32.87037 | -70.14207 | 22270 ft | 333 kts | 275° |
| 2026-05-01 10:15 | -32.86784 | -70.16944 | 21929 ft | 332 kts | 275° |
| 2026-05-01 10:15 | -32.86530 | -70.19664 | 21595 ft | 331 kts | 275° |
| 2026-05-01 10:15 | -32.86277 | -70.22393 | 21228 ft | 332 kts | 276° |
| 2026-05-01 10:16 | -32.86026 | -70.25135 | 20912 ft | 332 kts | 275° |
| 2026-05-01 10:16 | -32.85774 | -70.27873 | 20426 ft | 333 kts | 276° |
| 2026-05-01 10:16 | -32.85255 | -70.33353 | 19415 ft | 334 kts | 276° |
| 2026-05-01 10:17 | -32.84995 | -70.36096 | 18921 ft | 334 kts | 276° |
| 2026-05-01 10:17 | -32.84484 | -70.41568 | 17856 ft | 333 kts | 276° |
| 2026-05-01 10:17 | -32.84231 | -70.44315 | 17284 ft | 334 kts | 276° |
| 2026-05-01 10:18 | -32.83718 | -70.49802 | 16139 ft | 334 kts | 277° |
| 2026-05-01 10:18 | -32.83456 | -70.52558 | 15592 ft | 335 kts | 277° |
| 2026-05-01 10:18 | -32.83195 | -70.55323 | 15058 ft | 336 kts | 278° |
| 2026-05-01 10:19 | -32.82934 | -70.58087 | 14531 ft | 337 kts | 278° |
| 2026-05-01 10:19 | -32.82670 | -70.60858 | 14013 ft | 337 kts | 278° |
| 2026-05-01 10:19 | -32.82404 | -70.63640 | 13449 ft | 338 kts | 278° |
| 2026-05-01 10:20 | -32.82431 | -70.69203 | 12334 ft | 344 kts | 255° |
| 2026-05-01 10:20 | -32.83530 | -70.71724 | 11853 ft | 348 kts | 234° |
| 2026-05-01 10:20 | -32.85222 | -70.73756 | 11408 ft | 338 kts | 226° |
| 2026-05-01 10:20 | -32.86904 | -70.75595 | 10982 ft | 319 kts | 226° |
| 2026-05-01 10:21 | -32.88504 | -70.77342 | 10546 ft | 305 kts | 226° |
| 2026-05-01 10:21 | -32.91930 | -70.80286 | 9706 ft | 311 kts | 204° |
| 2026-05-01 10:21 | -32.93999 | -70.80900 | 9277 ft | 301 kts | 187° |
| 2026-05-01 10:22 | -32.98018 | -70.80766 | 8557 ft | 282 kts | 178° |
| 2026-05-01 10:22 | -33.01878 | -70.80559 | 7802 ft | 274 kts | 178° |
| 2026-05-01 10:23 | -33.03778 | -70.80463 | 7455 ft | 271 kts | 178° |
| 2026-05-01 10:23 | -33.07511 | -70.80282 | 6978 ft | 260 kts | 178° |
| 2026-05-01 10:23 | -33.09285 | -70.80189 | 6741 ft | 250 kts | 178° |
| 2026-05-01 10:24 | -33.12657 | -70.80008 | 6372 ft | 235 kts | 177° |
| 2026-05-01 10:24 | -33.15869 | -70.79837 | 5808 ft | 228 kts | 177° |
| 2026-05-01 10:25 | -33.18954 | -70.79672 | 5245 ft | 213 kts | 177° |
| 2026-05-01 10:25 | -33.21790 | -70.79520 | 4690 ft | 199 kts | 177° |
| 2026-05-01 10:26 | -33.23164 | -70.79446 | 4423 ft | 196 kts | 177° |
| 2026-05-01 10:26 | -33.24474 | -70.79376 | 4192 ft | 180 kts | 177° |
| 2026-05-01 10:26 | -33.26798 | -70.79252 | 3728 ft | 158 kts | 176° |
| 2026-05-01 10:27 | -33.28960 | -70.79136 | 3319 ft | 154 kts | 177° |
| 2026-05-01 10:27 | -33.31077 | -70.79022 | 2898 ft | 151 kts | 176° |
| 2026-05-01 10:28 | -33.32120 | -70.78966 | 2696 ft | 149 kts | 176° |
| 2026-05-01 10:28 | -33.34177 | -70.78856 | 2275 ft | 147 kts | 176° |
| 2026-05-01 10:28 | -33.35192 | -70.78801 | 2078 ft | 145 kts | 176° |
| 2026-05-01 10:29 | -33.37207 | -70.78700 | 1701 ft | 145 kts | 174° |
| 2026-05-01 10:29 | -33.38209 | -70.78639 | 1585 ft | 144 kts | 176° |
| 2026-05-01 10:30 | -33.39575 | -70.78616 | 1558 ft | 37 kts | 213° |
| 2026-05-01 10:30 | -33.39741 | -70.78763 | 1560 ft | 11 kts | 247° |
| 2026-05-01 10:31 | -33.39746 | -70.78919 | 1560 ft | 8 kts | 269° |
| 2026-05-01 10:31 | -33.39711 | -70.79007 | 1559 ft | 5 kts | 339° |
| 2026-05-01 10:32 | -33.39699 | -70.79008 | 1559 ft | 0 kts | 359° |